Time;durP1;ratioP1;P1;durP2;ratioP2;P2;SDS_P1;SDS_P2;PMS_P1;PMS_P2;Temp;Humidity;BMP_temperature;BMP_pressure;BME280_temperature;BME280_humidity;BME280_pressure;Samples;Min_cycle;Max_cycle;Signal;HPM_P1;HPM_P2
2022/11/16 00:02:26;;;;;;;163.87;97.93;;;9.00;99.90;;;;;;10468162;28;20526;-80
2022/11/16 00:07:26;;;;;;;172.47;100.30;;;9.00;99.90;;;;;;10482265;28;20090;-80
2022/11/16 00:12:27;;;;;;;167.63;98.20;;;9.00;99.90;;;;;;10470113;28;20064;-79
2022/11/16 00:17:27;;;;;;;173.83;99.90;;;9.00;99.90;;;;;;10472181;28;20025;-80
2022/11/16 00:22:28;;;;;;;154.83;93.30;;;9.00;99.90;;;;;;10469942;28;20332;-79
2022/11/16 00:27:28;;;;;;;154.47;92.33;;;8.90;99.90;;;;;;10462452;28;20963;-79
2022/11/16 00:32:30;;;;;;;171.20;98.10;;;8.90;99.90;;;;;;10468382;28;20067;-80
2022/11/16 00:37:30;;;;;;;180.03;102.43;;;8.90;99.90;;;;;;10454138;28;20586;-79
2022/11/16 00:42:31;;;;;;;174.03;96.67;;;8.90;99.90;;;;;;10484160;28;20028;-80
2022/11/16 00:47:31;;;;;;;174.03;100.60;;;8.90;99.90;;;;;;10469034;28;20037;-82
2022/11/16 00:52:32;;;;;;;181.03;104.30;;;8.90;99.90;;;;;;10467829;28;20032;-79
2022/11/16 00:57:35;;;;;;;174.77;100.53;;;8.90;99.90;;;;;;10473653;28;20040;-79
2022/11/16 01:02:35;;;;;;;172.17;97.57;;;8.90;99.90;;;;;;10463822;28;20040;-82
2022/11/16 01:07:37;;;;;;;168.53;96.07;;;8.90;99.90;;;;;;10474686;28;20040;-80
2022/11/16 01:12:38;;;;;;;183.40;104.00;;;8.90;99.90;;;;;;10465377;28;20047;-79
2022/11/16 01:17:40;;;;;;;178.30;102.40;;;8.90;99.90;;;;;;10462225;28;20575;-81
2022/11/16 01:22:41;;;;;;;163.17;96.07;;;8.90;99.90;;;;;;10460861;28;20040;-81
2022/11/16 01:27:42;;;;;;;162.77;92.90;;;8.90;99.90;;;;;;10464479;28;20413;-79
2022/11/16 01:32:43;;;;;;;181.50;102.73;;;8.90;99.90;;;;;;10463892;28;20652;-80
2022/11/16 01:37:44;;;;;;;181.17;105.70;;;8.90;99.90;;;;;;10450827;28;20086;-80
2022/11/16 01:42:44;;;;;;;159.13;95.77;;;8.90;99.90;;;;;;10479516;28;20047;-83
2022/11/16 01:47:45;;;;;;;188.47;107.63;;;8.90;99.90;;;;;;10464283;28;20051;-79
2022/11/16 01:53:01;;;;;;;162.20;89.07;;;8.90;99.90;;;;;;10471726;28;20024;-79
2022/11/16 01:58:02;;;;;;;198.73;111.27;;;8.90;99.90;;;;;;10464853;28;20032;-81
2022/11/16 02:03:02;;;;;;;164.17;97.33;;;8.90;99.90;;;;;;10468873;28;20407;-80
2022/11/16 02:14:19;;;;;;;178.07;101.97;;;8.80;99.90;;;;;;10444209;28;20044;-83
2022/11/16 02:20:04;;;;;;;172.20;100.03;;;8.80;99.90;;;;;;10462422;28;20480;-82
2022/11/16 02:25:28;;;;;;;190.40;107.67;;;8.80;99.90;;;;;;10400586;28;20151;-83
2022/11/16 02:30:29;;;;;;;182.53;103.80;;;8.90;99.90;;;;;;10457557;28;20126;-82
2022/11/16 02:35:35;;;;;;;175.33;102.13;;;8.80;99.90;;;;;;10457173;28;20052;-79
2022/11/16 02:40:41;;;;;;;172.80;102.33;;;8.80;99.90;;;;;;10461710;28;20031;-80
2022/11/16 02:45:45;;;;;;;;;;;8.70;99.90;;;;;;10475504;28;20055;-79
2022/11/16 02:50:48;;;;;;;175.57;102.27;;;8.70;99.90;;;;;;10474739;28;19912;-79
2022/11/16 02:55:49;;;;;;;182.50;108.00;;;8.70;99.90;;;;;;10469220;28;20056;-81
2022/11/16 03:00:59;;;;;;;164.90;98.40;;;8.80;99.90;;;;;;10468515;28;20108;-79
2022/11/16 03:06:12;;;;;;;154.93;92.93;;;8.70;99.90;;;;;;10465420;28;20087;-80
2022/11/16 03:16:39;;;;;;;165.93;96.27;;;8.80;99.90;;;;;;10474935;28;20045;-80
2022/11/16 03:22:06;;;;;;;162.43;94.87;;;8.80;99.90;;;;;;10461213;28;20051;-78
2022/11/16 03:27:26;;;;;;;164.20;98.10;;;8.80;99.90;;;;;;10443655;28;20032;-79
2022/11/16 03:32:33;;;;;;;184.70;111.60;;;8.80;99.90;;;;;;10465406;28;20119;-79
2022/11/16 03:37:35;;;;;;;187.90;112.27;;;8.80;99.90;;;;;;10481494;28;20040;-82
2022/11/16 03:42:36;;;;;;;181.60;113.23;;;8.80;99.90;;;;;;10474929;28;20091;-79
2022/11/16 03:47:36;;;;;;;204.00;119.07;;;8.80;99.90;;;;;;10464512;28;20032;-79
2022/11/16 03:52:37;;;;;;;179.80;106.73;;;8.80;99.90;;;;;;10474632;28;20500;-81
2022/11/16 03:57:37;;;;;;;181.30;104.23;;;8.80;99.90;;;;;;10460450;28;20040;-81
2022/11/16 04:02:38;;;;;;;173.57;101.53;;;8.80;99.90;;;;;;10460429;28;20084;-79
2022/11/16 04:28:57;;;;;;;178.70;101.83;;;8.80;99.90;;;;;;10460686;28;20067;-81
2022/11/16 04:39:17;;;;;;;182.87;106.43;;;8.80;99.90;;;;;;10456260;28;20036;-78
2022/11/16 04:44:18;;;;;;;187.70;105.90;;;8.80;99.90;;;;;;10454923;28;20442;-82
2022/11/16 04:49:18;;;;;;;186.87;106.47;;;8.70;99.90;;;;;;10465456;28;20021;-79
2022/11/16 04:54:19;;;;;;;182.53;100.57;;;8.70;99.90;;;;;;10463957;28;20076;-78
2022/11/16 04:59:19;;;;;;;177.40;103.97;;;8.70;99.90;;;;;;10465682;28;20044;-79
2022/11/16 05:04:20;;;;;;;164.40;99.43;;;8.70;99.90;;;;;;10464218;28;20041;-79
2022/11/16 05:09:21;;;;;;;181.27;106.57;;;8.70;99.90;;;;;;10486944;28;20060;-78
2022/11/16 05:14:21;;;;;;;169.07;98.67;;;8.70;99.90;;;;;;10461417;28;20063;-82
2022/11/16 05:24:41;;;;;;;192.50;108.03;;;8.70;99.90;;;;;;10482883;28;20044;-81
2022/11/16 05:29:42;;;;;;;194.43;110.80;;;8.60;99.90;;;;;;10475890;28;20513;-80
2022/11/16 05:34:42;;;;;;;200.57;111.93;;;8.60;99.90;;;;;;10466330;28;20116;-83
2022/11/16 05:39:43;;;;;;;199.47;108.43;;;8.60;99.90;;;;;;10474153;28;20107;-82
2022/11/16 05:44:43;;;;;;;219.07;114.27;;;8.50;99.90;;;;;;10486116;28;20370;-82
2022/11/16 05:49:44;;;;;;;222.47;116.17;;;8.50;99.90;;;;;;10468199;28;20118;-79
2022/11/16 05:54:44;;;;;;;192.27;105.40;;;8.50;99.90;;;;;;10485497;28;20703;-80
2022/11/16 05:59:45;;;;;;;148.10;86.30;;;8.40;99.90;;;;;;10485316;28;20035;-79
2022/11/16 06:04:46;;;;;;;223.77;112.77;;;8.50;99.90;;;;;;10484862;28;20032;-80
2022/11/16 06:09:46;;;;;;;198.67;109.43;;;8.50;99.90;;;;;;10485201;28;20509;-80
2022/11/16 06:14:47;;;;;;;235.47;119.70;;;8.40;99.90;;;;;;10485095;28;20029;-82
2022/11/16 06:19:47;;;;;;;200.53;110.13;;;8.40;99.90;;;;;;10485063;28;20032;-79
2022/11/16 06:24:48;;;;;;;215.10;114.30;;;8.40;99.90;;;;;;10480592;28;20025;-81
2022/11/16 06:29:48;;;;;;;179.33;101.27;;;8.50;99.90;;;;;;10473555;28;20029;-79
2022/11/16 06:34:49;;;;;;;216.67;118.67;;;8.50;99.90;;;;;;10484512;28;20097;-83
2022/11/16 06:39:49;;;;;;;187.27;107.60;;;8.60;99.90;;;;;;10483992;28;20040;-82
2022/11/16 06:44:50;;;;;;;216.70;118.43;;;8.60;99.90;;;;;;10484066;28;20036;-83
2022/11/16 06:49:50;;;;;;;212.13;124.97;;;8.70;99.90;;;;;;10483817;28;20035;-81
2022/11/16 06:54:51;;;;;;;190.40;109.43;;;8.60;99.90;;;;;;10483927;28;20077;-80
2022/11/16 06:59:51;;;;;;;201.47;111.63;;;8.70;99.90;;;;;;10483689;28;20369;-80
2022/11/16 07:04:52;;;;;;;183.83;105.07;;;8.70;99.90;;;;;;10483752;28;20044;-81
2022/11/16 07:09:52;;;;;;;209.67;116.80;;;8.70;99.90;;;;;;10483451;28;20105;-80
2022/11/16 07:14:53;;;;;;;192.43;106.67;;;8.80;99.90;;;;;;10484240;28;20036;-80
2022/11/16 07:19:53;;;;;;;163.87;95.13;;;8.80;99.90;;;;;;10483710;28;20036;-81
2022/11/16 07:24:54;;;;;;;211.93;112.80;;;8.80;99.90;;;;;;10478121;28;20044;-80
2022/11/16 07:29:54;;;;;;;188.80;102.43;;;8.80;99.90;;;;;;10474684;28;20033;-80
2022/11/16 07:34:55;;;;;;;172.97;97.77;;;8.80;99.90;;;;;;10483548;28;20547;-80
2022/11/16 07:39:55;;;;;;;149.77;82.60;;;8.80;99.90;;;;;;10486883;28;20043;-81
2022/11/16 07:44:56;;;;;;;186.13;103.37;;;8.90;99.90;;;;;;10490728;28;20045;-81
2022/11/16 07:49:57;;;;;;;167.90;89.77;;;8.90;99.90;;;;;;10462770;28;20033;-83
2022/11/16 07:54:57;;;;;;;137.67;73.07;;;8.90;99.90;;;;;;10491066;28;20028;-83
2022/11/16 07:59:58;;;;;;;136.37;69.53;;;8.90;99.90;;;;;;10490908;28;20101;-80
2022/11/16 08:04:58;;;;;;;128.37;61.97;;;8.90;99.90;;;;;;10476082;28;20048;-82
2022/11/16 08:09:59;;;;;;;143.57;67.90;;;9.00;99.90;;;;;;10490111;28;20063;-83
2022/11/16 08:14:59;;;;;;;130.40;62.73;;;9.00;99.90;;;;;;10491707;28;20044;-81
2022/11/16 08:20:00;;;;;;;154.73;71.70;;;9.00;99.90;;;;;;10475874;28;20067;-80
2022/11/16 08:25:00;;;;;;;165.43;83.20;;;9.00;99.90;;;;;;10484069;28;20426;-80
2022/11/16 08:30:02;;;;;;;211.33;118.03;;;9.10;99.90;;;;;;10482397;28;20056;-82
2022/11/16 08:35:03;;;;;;;176.37;93.13;;;9.10;99.90;;;;;;10466717;28;20060;-80
2022/11/16 08:40:04;;;;;;;151.27;74.83;;;9.10;99.90;;;;;;10461922;28;20043;-80
2022/11/16 08:45:05;;;;;;;155.23;72.80;;;9.20;99.90;;;;;;10488451;28;20036;-80
2022/11/16 08:50:06;;;;;;;150.23;67.93;;;9.10;99.90;;;;;;10473297;28;20037;-82
2022/11/16 08:55:07;;;;;;;124.97;62.33;;;9.10;99.90;;;;;;10488151;28;20032;-79
2022/11/16 09:00:10;;;;;;;135.90;64.43;;;9.10;99.90;;;;;;10470409;28;20518;-79
2022/11/16 09:05:11;;;;;;;143.97;69.57;;;9.10;99.90;;;;;;10487880;28;20049;-83
2022/11/16 09:10:12;;;;;;;178.43;80.50;;;9.10;99.90;;;;;;10488207;28;20044;-81
2022/11/16 09:15:12;;;;;;;190.30;90.27;;;9.10;99.90;;;;;;10475077;28;20086;-81
2022/11/16 09:20:13;;;;;;;187.67;91.80;;;9.10;99.90;;;;;;10455689;28;20434;-82
2022/11/16 09:25:13;;;;;;;180.27;88.43;;;9.10;99.90;;;;;;10463750;28;20040;-80
2022/11/16 09:30:15;;;;;;;190.70;84.97;;;9.10;99.90;;;;;;10474448;28;20029;-80
2022/11/16 09:35:16;;;;;;;162.80;77.37;;;9.00;99.90;;;;;;10480023;28;20024;-80
2022/11/16 09:40:17;;;;;;;211.53;86.17;;;9.00;99.90;;;;;;10463152;28;20040;-80
2022/11/16 09:45:49;;;;;;;188.90;84.17;;;9.00;99.90;;;;;;10478520;28;20682;-83
2022/11/16 09:50:56;;;;;;;174.97;73.23;;;9.00;99.90;;;;;;10475177;28;20056;-80
2022/11/16 09:56:07;;;;;;;191.30;71.57;;;9.00;99.90;;;;;;10485640;28;20028;-83
2022/11/16 10:01:26;;;;;;;183.97;67.73;;;9.10;99.90;;;;;;10485428;28;20119;-80
2022/11/16 10:06:38;;;;;;;188.63;74.73;;;9.10;99.90;;;;;;10485899;28;20078;-81
2022/11/16 10:12:21;;;;;;;188.73;75.47;;;9.10;99.90;;;;;;10485507;28;20101;-81
2022/11/16 10:17:50;;;;;;;189.97;74.97;;;9.00;99.90;;;;;;10420393;28;20036;-82
2022/11/16 10:23:07;;;;;;;228.30;79.67;;;9.00;99.90;;;;;;10485096;28;20036;-83
2022/11/16 10:28:35;;;;;;;259.80;84.63;;;9.00;99.90;;;;;;10471486;28;20074;-79
2022/11/16 10:33:37;;;;;;;242.07;80.07;;;8.90;99.90;;;;;;10485007;28;20036;-80
2022/11/16 10:38:40;;;;;;;235.93;76.97;;;8.90;99.90;;;;;;10478802;28;20032;-81
2022/11/16 10:43:42;;;;;;;194.93;73.90;;;8.90;99.90;;;;;;10476667;28;20040;-80
2022/11/16 10:49:06;;;;;;;178.00;68.07;;;8.80;99.90;;;;;;10485183;28;20723;-81
2022/11/16 10:54:14;;;;;;;210.00;75.13;;;8.80;99.90;;;;;;10483892;28;20104;-81
2022/11/16 10:59:18;;;;;;;214.87;78.97;;;8.80;99.90;;;;;;10484610;28;20119;-80
2022/11/16 11:04:30;;;;;;;88.23;34.30;;;8.80;99.90;;;;;;10438279;28;20025;-81
2022/11/16 11:09:35;;;;;;;46.67;24.10;;;8.60;99.90;;;;;;10484501;28;20048;-84
2022/11/16 11:14:36;;;;;;;41.08;21.90;;;8.30;99.90;;;;;;10468761;28;20025;-80
2022/11/16 11:19:37;;;;;;;43.53;21.50;;;7.90;99.90;;;;;;10492371;28;20055;-81
2022/11/16 11:24:46;;;;;;;45.63;22.60;;;7.60;99.90;;;;;;10489439;28;20506;-82
2022/11/16 11:29:52;;;;;;;46.37;22.37;;;7.50;99.90;;;;;;10453819;28;20402;-80
2022/11/16 11:34:55;;;;;;;46.67;20.50;;;7.30;99.90;;;;;;10492325;28;20557;-82
2022/11/16 11:40:18;;;;;;;49.13;24.33;;;7.10;99.90;;;;;;10478172;28;20036;-81
2022/11/16 11:45:44;;;;;;;43.93;19.23;;;7.00;99.90;;;;;;10491327;28;20067;-80
2022/11/16 11:50:57;;;;;;;52.83;21.77;;;6.80;99.90;;;;;;10480240;28;20407;-83
2022/11/16 11:55:59;;;;;;;41.23;19.20;;;6.80;99.90;;;;;;10491200;28;20024;-81
2022/11/16 12:01:34;;;;;;;46.63;20.20;;;6.70;99.90;;;;;;10476875;28;20086;-84
2022/11/16 12:06:40;;;;;;;30.23;16.30;;;6.60;99.90;;;;;;10491158;28;20032;-80
2022/11/16 12:11:56;;;;;;;53.10;29.70;;;6.60;99.90;;;;;;10490590;28;20045;-81
2022/11/16 12:17:35;;;;;;;34.65;16.13;;;6.60;99.90;;;;;;10477002;28;20037;-81
2022/11/16 12:23:04;;;;;;;33.00;15.07;;;6.50;99.90;;;;;;10432250;28;20064;-81
2022/11/16 12:28:32;;;;;;;27.43;14.83;;;6.50;99.90;;;;;;10461547;28;20132;-82
2022/11/16 12:33:33;;;;;;;29.40;13.47;;;6.40;99.90;;;;;;10472235;28;20476;-82
2022/11/16 12:39:00;;;;;;;28.17;14.57;;;6.30;99.90;;;;;;10490405;28;20033;-82
2022/11/16 12:44:07;;;;;;;33.13;14.57;;;6.30;99.90;;;;;;10489345;28;20037;-83
2022/11/16 12:49:42;;;;;;;29.83;14.93;;;6.20;99.90;;;;;;10488947;28;20064;-81
2022/11/16 12:55:01;;;;;;;26.80;13.90;;;6.10;99.90;;;;;;10489161;28;20080;-81
2022/11/16 13:00:14;;;;;;;26.70;14.00;;;6.10;99.90;;;;;;10490171;28;20682;-84
2022/11/16 13:05:20;;;;;;;26.90;14.93;;;6.10;99.90;;;;;;10488215;28;20044;-83
2022/11/16 13:10:29;;;;;;;28.20;16.23;;;6.00;99.90;;;;;;10489010;28;20044;-81
2022/11/16 13:15:38;;;;;;;35.17;14.40;;;6.00;99.90;;;;;;10489277;28;20039;-84
2022/11/16 13:20:45;;;;;;;31.80;17.30;;;6.00;99.90;;;;;;10470587;28;20498;-82
2022/11/16 13:25:56;;;;;;;39.37;19.10;;;6.00;99.90;;;;;;10444310;28;20396;-84
2022/11/16 13:31:09;;;;;;;42.30;20.27;;;5.90;99.90;;;;;;10441012;28;20036;-81
2022/11/16 13:36:42;;;;;;;66.07;30.57;;;6.00;99.90;;;;;;10446568;28;20512;-85
2022/11/16 13:41:48;;;;;;;46.00;24.10;;;6.10;99.90;;;;;;10445742;28;20866;-83
2022/11/16 13:47:03;;;;;;;34.70;18.50;;;6.10;99.90;;;;;;10423783;28;20711;-81
2022/11/16 13:52:09;;;;;;;37.40;18.10;;;6.10;99.90;;;;;;10445445;28;20031;-83
2022/11/16 13:57:24;;;;;;;742.40;340.40;;;6.20;99.90;;;;;;10469577;28;20040;-80
2022/11/16 14:02:32;;;;;;;484.70;259.33;;;6.20;99.90;;;;;;10459696;28;20056;-83
2022/11/16 14:07:41;;;;;;;189.03;88.30;;;6.20;99.90;;;;;;10456592;28;20035;-83
2022/11/16 14:12:53;;;;;;;175.57;78.70;;;6.10;99.90;;;;;;10453565;28;20094;-81
2022/11/16 14:18:06;;;;;;;76.00;40.37;;;6.10;99.90;;;;;;10459340;28;20100;-85
2022/11/16 14:23:29;;;;;;;85.03;42.83;;;6.10;99.90;;;;;;10459910;28;20180;-84
2022/11/16 14:28:54;;;;;;;22.20;12.43;;;6.00;99.90;;;;;;10465009;28;20035;-81
2022/11/16 14:33:58;;;;;;;192.90;86.00;;;5.90;99.90;;;;;;10467555;28;20024;-82
2022/11/16 14:39:25;;;;;;;1105.50;460.53;;;5.90;99.90;;;;;;10471629;28;20064;-83
2022/11/16 14:44:30;;;;;;;43.30;21.10;;;5.90;99.90;;;;;;10450212;28;20052;-84
2022/11/16 14:49:34;;;;;;;35.17;18.20;;;5.90;99.90;;;;;;10431146;28;20111;-81
2022/11/16 14:54:46;;;;;;;51.13;24.40;;;5.80;99.90;;;;;;10463036;28;20031;-82
2022/11/16 14:59:47;;;;;;;143.40;74.70;;;5.80;99.90;;;;;;10463575;28;20035;-81
2022/11/16 15:04:50;;;;;;;164.77;98.40;;;5.80;99.90;;;;;;10473100;28;20041;-82
2022/11/16 15:09:54;;;;;;;324.67;181.90;;;5.80;99.90;;;;;;10472146;28;20060;-81
2022/11/16 15:14:59;;;;;;;36.80;17.43;;;5.80;99.90;;;;;;10483784;28;20028;-81
2022/11/16 15:20:03;;;;;;;44.72;24.90;;;5.70;99.90;;;;;;10477608;28;20443;-82
2022/11/16 15:25:04;;;;;;;52.17;30.57;;;5.70;99.90;;;;;;10460559;28;20047;-82
2022/11/16 15:30:14;;;;;;;89.23;51.77;;;5.80;99.90;;;;;;10474924;28;20024;-83
2022/11/16 15:35:22;;;;;;;34.47;17.33;;;5.70;99.90;;;;;;10481871;28;20027;-82
2022/11/16 15:40:23;;;;;;;28.53;15.23;;;5.60;99.90;;;;;;10483699;28;20028;-81
2022/11/16 15:45:25;;;;;;;98.60;58.73;;;5.60;99.90;;;;;;10468624;28;20032;-82
2022/11/16 15:50:26;;;;;;;56.80;33.43;;;5.60;99.90;;;;;;10450139;28;20369;-80
2022/11/16 15:55:37;;;;;;;49.63;27.20;;;5.60;99.90;;;;;;10445825;28;20029;-81
2022/11/16 16:00:38;;;;;;;39.87;21.07;;;5.50;99.90;;;;;;10468982;28;20081;-81
2022/11/16 16:05:39;;;;;;;44.87;21.27;;;5.50;99.90;;;;;;10490893;28;20810;-82
2022/11/16 16:10:40;;;;;;;57.37;30.10;;;5.50;99.90;;;;;;10481092;28;20056;-83
2022/11/16 16:15:41;;;;;;;64.93;35.83;;;5.60;99.90;;;;;;10465057;28;20083;-84
2022/11/16 16:20:46;;;;;;;103.70;49.70;;;5.60;99.90;;;;;;10454755;28;20090;-82
2022/11/16 16:25:47;;;;;;;46.00;24.65;;;5.60;99.90;;;;;;10464694;28;20067;-79
2022/11/16 16:30:49;;;;;;;53.47;26.40;;;5.50;99.90;;;;;;10474359;28;20107;-83
2022/11/16 16:35:50;;;;;;;35.93;17.60;;;5.50;99.90;;;;;;10466497;28;20029;-85
2022/11/16 16:40:50;;;;;;;34.27;15.83;;;5.40;99.90;;;;;;10468782;28;20036;-83
2022/11/16 16:45:51;;;;;;;38.70;18.33;;;5.40;99.90;;;;;;10447524;28;20048;-81
2022/11/16 16:50:52;;;;;;;43.73;22.70;;;5.40;99.90;;;;;;10447628;28;20412;-81
2022/11/16 16:55:52;;;;;;;41.70;21.27;;;5.50;99.90;;;;;;10465975;28;20047;-81
2022/11/16 17:00:53;;;;;;;40.37;21.60;;;5.50;99.90;;;;;;10461020;28;20808;-82
2022/11/16 17:05:59;;;;;;;47.97;26.73;;;5.40;99.90;;;;;;10458261;28;20032;-84
2022/11/16 17:11:00;;;;;;;33.13;17.83;;;5.40;99.90;;;;;;10461552;28;20055;-81
2022/11/16 17:16:04;;;;;;;35.47;18.27;;;5.30;99.90;;;;;;10482938;28;20392;-82
2022/11/16 17:21:06;;;;;;;38.77;19.30;;;5.30;99.90;;;;;;10473373;28;20035;-81
2022/11/16 17:26:08;;;;;;;32.03;15.40;;;5.30;99.90;;;;;;10461844;28;20044;-81
2022/11/16 17:31:10;;;;;;;30.23;15.63;;;5.20;99.90;;;;;;10452892;28;20019;-81
2022/11/16 17:36:12;;;;;;;20.90;11.03;;;5.20;99.90;;;;;;10440411;28;20032;-82
2022/11/16 17:41:14;;;;;;;23.03;9.53;;;5.10;99.90;;;;;;10466504;28;20032;-81
2022/11/16 17:46:17;;;;;;;26.67;11.50;;;5.00;99.90;;;;;;10451703;28;20033;-84
2022/11/16 17:51:20;;;;;;;19.50;9.23;;;5.00;99.90;;;;;;10434777;28;20056;-81
2022/11/16 17:56:24;;;;;;;18.93;8.43;;;4.90;99.90;;;;;;10457868;28;20377;-83
2022/11/16 18:01:26;;;;;;;21.63;9.50;;;4.90;99.90;;;;;;10461149;28;20024;-81
2022/11/16 18:06:27;;;;;;;20.20;9.33;;;4.80;99.90;;;;;;10470160;28;20047;-81
2022/11/16 18:11:28;;;;;;;15.60;8.40;;;4.70;99.90;;;;;;10468615;28;20495;-82
2022/11/16 18:16:30;;;;;;;22.10;9.73;;;4.70;99.90;;;;;;10456652;28;20040;-80
2022/11/16 18:22:06;;;;;;;12.37;5.97;;;4.60;99.90;;;;;;10464548;28;20024;-83
2022/11/16 18:27:07;;;;;;;14.63;7.00;;;4.40;99.90;;;;;;10431950;28;20139;-84
2022/11/16 18:32:08;;;;;;;15.37;8.30;;;4.30;99.90;;;;;;10481932;28;20031;-80
2022/11/16 18:37:08;;;;;;;15.20;7.00;;;4.20;99.90;;;;;;10443160;28;20135;-82
2022/11/16 18:42:10;;;;;;;10.57;5.43;;;4.10;99.90;;;;;;10432198;28;20484;-81
2022/11/16 18:47:11;;;;;;;10.43;4.70;;;4.00;99.90;;;;;;10453824;28;20601;-82
2022/11/16 18:52:12;;;;;;;9.53;4.80;;;3.90;99.90;;;;;;10431345;28;20124;-83
2022/11/16 18:57:12;;;;;;;9.40;5.23;;;3.80;99.90;;;;;;10463184;28;20413;-82
2022/11/16 19:02:13;;;;;;;13.03;5.70;;;3.70;99.90;;;;;;10469815;28;20115;-82
2022/11/16 19:07:13;;;;;;;15.53;6.60;;;3.60;99.90;;;;;;10444408;28;20111;-80
2022/11/16 19:12:14;;;;;;;14.43;7.10;;;3.50;99.90;;;;;;10438190;28;20389;-82
2022/11/16 19:17:14;;;;;;;15.93;7.37;;;3.40;99.90;;;;;;10438916;28;20503;-80
2022/11/16 19:22:15;;;;;;;18.30;7.87;;;3.10;99.90;;;;;;10465428;28;20139;-79
2022/11/16 19:27:16;;;;;;;22.40;10.20;;;3.00;99.90;;;;;;10442311;28;20498;-82
2022/11/16 19:32:16;;;;;;;21.03;9.50;;;2.90;99.90;;;;;;10462446;28;20029;-80
2022/11/16 19:37:17;;;;;;;24.97;10.60;;;2.80;99.90;;;;;;10473780;28;20461;-82
2022/11/16 19:42:17;;;;;;;25.53;11.73;;;2.60;99.90;;;;;;10464926;28;20102;-81
2022/11/16 19:47:18;;;;;;;24.67;12.23;;;2.50;99.90;;;;;;10450730;28;20707;-81
2022/11/16 19:52:19;;;;;;;26.80;12.23;;;2.50;99.90;;;;;;10471395;28;20032;-80
2022/11/16 19:57:19;;;;;;;20.23;8.20;;;2.40;99.90;;;;;;10468756;28;20080;-80
2022/11/16 20:02:20;;;;;;;21.27;9.47;;;2.30;99.90;;;;;;10479249;28;20049;-80
2022/11/16 20:07:20;;;;;;;23.07;10.20;;;2.30;99.90;;;;;;10449610;28;20036;-82
2022/11/16 20:12:21;;;;;;;19.10;8.60;;;2.30;99.90;;;;;;10459149;28;20060;-79
2022/11/16 20:17:21;;;;;;;24.17;9.90;;;2.30;99.90;;;;;;10463660;28;20036;-78
2022/11/16 20:22:22;;;;;;;24.43;10.70;;;2.30;99.90;;;;;;10468406;28;20391;-79
2022/11/16 20:27:23;;;;;;;20.20;8.37;;;2.30;99.90;;;;;;10481068;28;20039;-79
2022/11/16 20:32:24;;;;;;;17.37;8.07;;;2.40;99.90;;;;;;10476062;28;20033;-79
2022/11/16 20:37:24;;;;;;;18.57;8.10;;;2.40;99.90;;;;;;10453047;28;20503;-81
2022/11/16 20:42:25;;;;;;;21.73;9.07;;;2.40;99.90;;;;;;10477692;28;20091;-80
2022/11/16 20:47:25;;;;;;;21.07;9.10;;;2.40;99.90;;;;;;10465236;28;20170;-79
2022/11/16 20:52:26;;;;;;;18.10;8.37;;;2.40;99.90;;;;;;10474902;28;20032;-79
2022/11/16 20:57:26;;;;;;;12.73;6.10;;;2.40;99.90;;;;;;10474744;28;20545;-79
2022/11/16 21:02:27;;;;;;;15.77;7.57;;;2.30;99.90;;;;;;10460984;28;20037;-83
2022/11/16 21:07:28;;;;;;;17.23;8.00;;;2.30;99.90;;;;;;10467370;28;20182;-79
2022/11/16 21:17:47;;;;;;;15.70;7.50;;;2.30;99.90;;;;;;10474795;28;20854;-83
2022/11/16 21:22:48;;;;;;;14.07;7.00;;;2.30;99.90;;;;;;10453758;28;20040;-79
2022/11/16 21:27:48;;;;;;;15.27;7.30;;;2.30;99.90;;;;;;10453693;28;20487;-80
2022/11/16 21:32:49;;;;;;;18.60;8.53;;;2.20;99.90;;;;;;10471007;28;20040;-80
2022/11/16 21:37:49;;;;;;;19.27;9.43;;;2.20;99.90;;;;;;10467804;28;20041;-81
2022/11/16 21:42:50;;;;;;;21.70;9.33;;;2.20;99.90;;;;;;10483349;28;20040;-79
2022/11/16 21:47:51;;;;;;;21.23;9.30;;;2.20;99.90;;;;;;10466838;28;20021;-79
2022/11/16 21:52:51;;;;;;;25.07;10.30;;;2.20;99.90;;;;;;10459008;28;20472;-81
2022/11/16 21:57:52;;;;;;;22.50;10.17;;;2.20;99.90;;;;;;10466513;28;20021;-79
2022/11/16 22:02:52;;;;;;;22.43;10.17;;;2.20;99.90;;;;;;10459786;28;20488;-83
2022/11/16 22:07:53;;;;;;;20.97;9.60;;;2.30;99.90;;;;;;10461500;28;20082;-79
2022/11/16 22:12:54;;;;;;;21.10;9.67;;;2.30;99.90;;;;;;10462091;28;20025;-79
2022/11/16 22:17:54;;;;;;;18.73;8.93;;;2.30;99.90;;;;;;10454320;28;20047;-83
2022/11/16 22:22:55;;;;;;;17.80;8.83;;;2.30;99.90;;;;;;10466616;28;20043;-79
2022/11/16 22:27:55;;;;;;;18.03;8.97;;;2.20;99.90;;;;;;10466809;28;20037;-79
2022/11/16 22:32:56;;;;;;;22.27;9.60;;;2.20;99.90;;;;;;10463683;28;20036;-80
2022/11/16 22:37:58;;;;;;;20.80;9.47;;;2.20;99.90;;;;;;10468034;28;20071;-82
2022/11/16 22:42:58;;;;;;;20.70;9.73;;;2.20;99.90;;;;;;10478317;28;20029;-79
2022/11/16 22:47:59;;;;;;;23.87;10.07;;;2.20;99.90;;;;;;10457756;28;20033;-79
2022/11/16 22:52:59;;;;;;;19.80;9.50;;;2.10;99.90;;;;;;10462631;28;20032;-83
2022/11/16 22:58:00;;;;;;;24.70;11.30;;;2.10;99.90;;;;;;10478258;28;20036;-79
2022/11/16 23:03:01;;;;;;;29.43;12.17;;;2.10;99.90;;;;;;10460332;28;20036;-80
2022/11/16 23:08:01;;;;;;;31.63;12.57;;;2.10;99.90;;;;;;10444139;28;20093;-81
2022/11/16 23:18:35;;;;;;;34.20;14.50;;;2.20;99.90;;;;;;10427333;28;20805;-80
2022/11/16 23:28:55;;;;;;;39.07;15.10;;;2.20;99.90;;;;;;10475467;28;20498;-79
2022/11/16 23:33:56;;;;;;;37.33;14.93;;;2.10;99.90;;;;;;10479872;28;20037;-80
2022/11/16 23:38:56;;;;;;;30.17;13.57;;;2.10;99.90;;;;;;10463668;28;20234;-80
2022/11/16 23:43:57;;;;;;;39.23;16.30;;;2.10;99.90;;;;;;10480845;28;20036;-84
2022/11/16 23:48:59;;;;;;;32.67;14.43;;;2.20;99.90;;;;;;10450727;28;20040;-79
2022/11/16 23:54:00;;;;;;;29.00;13.63;;;2.30;99.90;;;;;;10459387;28;20089;-81
2022/11/16 23:59:00;;;;;;;24.60;11.93;;;2.30;99.90;;;;;;10446214;28;20054;-79
